Latest Weather Observations for Hogan Island

IDV60801

Issued at 11:02 pm EST Monday 24 April 2017 (issued every 30 minutes, with the page automatically refreshed every 10 minutes)

About weather observations | Map of weather stations | Latest weather observations for VIC | Other Formats
Station Details ID: 200838 Name: HOGAN ISLAND Lat: -39.22 Lon: 146.98 Height: 116.0 m
Data from the previous 72 hours. | See also: Recent months at Hogan Island
Date/Time
EST
Temp
°C
App
Temp
°C
Dew
Point
°C
Rel
Hum
%
Delta-T
°C
Wind Press
QNH
hPa
Press
MSL
hPa
Rain since
9am
mm
Dir  Spd
km/h
Gust
km/h
Spd
kts
Gust
kts
24/11:00pm 15.3 - 16.4 - - NNE 19 20 10 11 1012.7 - 0.0
24/10:30pm 15.7 - 16.8 - - NNE 15 19 8 10 1013.1 - 0.0
24/10:00pm 15.9 - 17.0 - - NNE 15 17 8 9 1013.6 - 0.0
24/09:30pm 15.9 - 17.0 - - N 15 20 8 11 1014.1 - 0.0
24/09:00pm 15.9 - 17.0 - - NNE 13 17 7 9 1014.4 1014.3 0.0
24/08:30pm 15.9 - 17.0 - - NNE 15 19 8 10 1014.7 - 0.0
24/08:00pm 15.5 - 16.6 - - ENE 17 17 9 9 1014.7 - 0.0
24/07:30pm 15.3 - 16.4 - - ENE 17 19 9 10 1014.9 - 0.0
24/07:00pm 15.3 - 16.4 - - ENE 22 26 12 14 1015.0 - 0.0
24/06:30pm 15.3 - 16.2 - - ENE 20 24 11 13 1014.9 - 0.0
24/06:00pm 15.2 - 16.1 - - NNW 15 19 8 10 1015.0 1014.9 0.0
24/05:30pm 15.3 - 16.2 - - WNW 11 11 6 6 1015.2 - 0.0
24/05:00pm 15.7 - 16.6 - - WNW 11 11 6 6 1015.3 - 0.0
24/04:30pm 16.3 - 17.2 - - WNW 7 9 4 5 1015.6 - 0.0
24/04:00pm 16.7 - 17.6 - - WNW 6 9 3 5 1015.8 - 0.0
24/03:30pm 17.2 - 18.1 - - WNW 6 9 3 5 1016.1 - 0.0
24/03:00pm 17.0 - 17.9 - - N 11 15 6 8 1016.2 1016.1 0.0
24/02:30pm 17.0 - 17.9 - - NNW 13 17 7 9 1016.3 - 0.0
24/02:00pm 17.2 - 18.1 - - NNE 11 15 6 8 1016.5 - 0.0
24/01:30pm 17.4 - 18.3 - - NE 11 15 6 8 1016.7 - 0.0
24/01:00pm 17.0 - 17.9 - - NNE 11 13 6 7 1017.2 - 0.0
24/12:30pm 16.5 - 17.4 - - NNE 15 19 8 10 1017.8 - 0.0
24/12:00pm 16.5 - 17.4 - - NNE 19 24 10 13 1018.4 1018.4 0.0
24/11:30am 17.1 - 18.0 - - N 17 20 9 11 1018.9 - 0.0
24/11:00am 16.8 - 17.7 - - NNE 13 20 7 11 1019.5 - 0.0
24/10:30am 16.5 - 17.4 - - N 13 17 7 9 1020.0 - 0.0
24/10:00am 16.9 - 17.8 - - N 13 17 7 9 1020.3 - 0.0
24/09:30am 16.5 - 17.4 - - NNE 13 15 7 8 1020.5 - 0.0
24/09:00am 16.5 - 17.4 - - NNE 13 15 7 8 1020.8 1020.7 0.0
24/08:30am 16.5 - 17.4 - - NE 9 11 5 6 1020.9 - 0.0
24/08:00am 15.8 - 16.7 - - NNE 11 13 6 7 1020.9 - 0.0
24/07:30am 15.4 - 16.3 - - NNE 9 11 5 6 1020.9 - 0.0
24/07:00am 15.0 - 15.9 - - NE 9 11 5 6 1020.7 - 0.0
24/06:30am 15.0 - 15.9 - - NNE 7 9 4 5 1020.8 - 0.0
24/06:00am 15.1 - 16.0 - - N 13 15 7 8 1020.9 1020.8 0.0
24/05:30am 14.7 - 15.6 - - NNE 11 11 6 6 1020.9 - 0.0
24/05:00am 14.3 - 15.2 - - NNE 9 11 5 6 1021.0 - 0.0
24/04:30am 14.9 - 15.8 - - NNE 13 15 7 8 1021.1 - 0.0
24/04:00am 14.7 - 15.6 - - NE 13 15 7 8 1021.1 - 0.0
24/03:30am 15.3 - 16.2 - - NE 15 17 8 9 1021.1 - 0.0
24/03:00am 15.1 - - - - NE 13 15 7 8 1021.4 1021.3 0.0
24/02:30am 15.3 - - - - NE 15 19 8 10 1021.5 - 0.0
24/02:00am 15.3 - - - - NE 17 20 9 11 1021.8 - 0.0
24/01:30am 15.7 - - - - NE 19 20 10 11 1022.1 - 0.0
24/01:00am 15.9 - - - - NE 20 22 11 12 1022.4 - 0.0
24/12:30am 15.8 - - - - NE 20 24 11 13 1022.5 - 0.0
24/12:00am 15.9 - - - - ENE 24 28 13 15 1022.7 1022.6 0.0
 
Date/Time
EST
Temp
°C
App
Temp
°C
Dew
Point
°C
Rel
Hum
%
Delta-T
°C
Wind Press
QNH
hPa
Press
MSL
hPa
Rain since
9am
mm
Dir  Spd
km/h
Gust
km/h
Spd
kts
Gust
kts
23/11:30pm 15.7 - - - - ENE 24 28 13 15 1023.0 - 0.0
23/11:00pm 15.7 - - - - E 26 32 14 17 1023.2 - 0.0
23/10:30pm 15.8 - - - - E 28 33 15 18 1023.4 - 0.0
23/10:00pm 16.0 - - - - E 28 32 15 17 1023.5 - 0.0
23/09:30pm 16.1 - - - - ENE 26 33 14 18 1023.7 - 0.0
23/09:00pm 16.2 - - - - ENE 20 26 11 14 1023.7 1023.6 0.0
23/08:30pm 15.7 - - - - E 20 24 11 13 1023.5 - 0.0
23/08:00pm 15.4 - - - - E 17 19 9 10 1023.6 - 0.0
23/07:30pm 15.6 - - - - E 17 19 9 10 1023.4 - 0.0
23/07:00pm 15.7 - - - - E 15 17 8 9 1023.3 - 0.0
23/06:30pm 15.5 - - - - E 15 17 8 9 1023.1 - 0.0
23/06:00pm 15.7 - - - - E 15 15 8 8 1023.0 1022.9 0.0
23/05:30pm 15.9 - - - - ESE 17 17 9 9 1022.8 - 0.0
23/05:00pm 16.3 - - - - ESE 15 17 8 9 1022.7 - 0.0
23/04:30pm 16.7 - - - - SE 11 13 6 7 1022.5 - 0.0
23/04:00pm 17.0 - - - - SE 13 15 7 8 1022.5 - 0.0
23/03:30pm 17.3 - - - - SE 13 15 7 8 1022.5 - 0.0
23/03:00pm 17.8 - - - - S 13 15 7 8 1022.5 1022.4 0.0
23/02:30pm 17.8 - - - - SSW 9 15 5 8 1022.5 - 0.0
23/02:00pm 18.3 - - - - W 11 13 6 7 1022.5 - 0.0
23/01:30pm 18.7 - - - - WNW 11 13 6 7 1022.6 - 0.0
23/01:00pm 18.9 - - - - WNW 15 19 8 10 1022.9 - 0.0
23/12:30pm 17.9 - - - - NW 15 17 8 9 1023.2 - 0.0
23/12:00pm 18.1 - - - - WNW 11 13 6 7 1023.5 1023.4 0.0
23/11:30am 18.3 - - - - NW 15 20 8 11 1023.8 - 0.0
23/11:00am 18.8 - - - - NW 17 19 9 10 1023.8 - 0.0
23/10:30am 18.3 - - - - NW 13 17 7 9 1024.0 - 0.0
23/10:00am 17.3 - - - - WNW 17 20 9 11 1024.1 - 0.0
23/09:30am 17.2 - - - - NW 17 20 9 11 1024.1 - 0.0
23/09:00am 16.6 - - - - NW 15 20 8 11 1024.1 1024.0 0.0
23/08:30am 16.3 - - - - NW 15 20 8 11 1024.1 - 0.0
23/08:00am 16.2 - - - - WNW 20 24 11 13 1024.1 - 0.0
23/07:30am 15.9 - - - - NW 19 24 10 13 1023.7 - 0.0
23/07:00am 16.0 - - - - NNW 15 17 8 9 1023.5 - 0.0
23/06:30am 16.0 - - - - NNW 15 15 8 8 1023.2 - 0.0
23/06:00am 16.0 - - - - NNW 15 15 8 8 1022.9 1022.8 0.0
23/05:30am 16.0 - - - - NNW 13 15 7 8 1022.7 - 0.0
23/05:00am 16.0 - - - - NNW 15 17 8 9 1022.6 - 0.0
23/04:30am 15.9 - - - - N 15 17 8 9 1022.5 - 0.0
23/04:00am 15.8 - - - - N 15 19 8 10 1022.5 - 0.0
23/03:30am 15.8 - - - - N 15 20 8 11 1022.5 - 0.0
23/03:00am 15.5 - - - - N 19 20 10 11 1022.6 1022.5 0.0
23/02:30am 15.7 - - - - N 20 22 11 12 1022.7 - 0.0
23/02:00am 15.7 - - - - N 20 22 11 12 1022.8 - 0.0
23/01:30am 15.9 - - - - N 17 20 9 11 1023.0 - 0.0
23/01:00am 15.8 - - - - NNE 19 20 10 11 1023.0 - 0.0
23/12:30am 15.5 - - - - NNE 17 20 9 11 1023.2 - 0.0
23/12:00am 15.6 - - - - N 17 20 9 11 1023.3 1023.2 0.0
 
Date/Time
EST
Temp
°C
App
Temp
°C
Dew
Point
°C
Rel
Hum
%
Delta-T
°C
Wind Press
QNH
hPa
Press
MSL
hPa
Rain since
9am
mm
Dir  Spd
km/h
Gust
km/h
Spd
kts
Gust
kts
22/11:30pm 15.7 - - - - N 20 22 11 12 1023.3 - 0.0
22/11:00pm 15.5 - - - - N 22 26 12 14 1023.3 - 0.0
22/10:30pm 15.3 - - - - N 19 20 10 11 1023.5 - 0.0
22/10:00pm 15.2 - - - - NNE 15 17 8 9 1023.6 - 0.0
22/09:30pm 15.3 - - - - NE 9 11 5 6 1023.6 - 0.0
22/09:00pm 15.5 - - - - SSW 9 9 5 5 1023.5 1023.4 0.0
22/08:30pm 15.5 - - - - SSW 7 9 4 5 1023.2 - 0.0
22/08:00pm 15.4 - - - - SSW 7 9 4 5 1023.1 - 0.0
22/07:30pm 15.7 - - - - SSW 6 7 3 4 1023.0 - 0.0
22/07:00pm 15.9 - - - - SSW 7 9 4 5 1022.9 - 0.0
22/06:30pm 15.9 - - - - CALM 0 2 0 1 1022.8 - 0.0
22/06:00pm 16.5 - - - - CALM 0 0 0 0 1022.6 1022.5 0.0
22/05:30pm 16.9 - - - - CALM 0 0 0 0 1022.4 - 0.0
22/05:00pm 18.1 - - - - CALM 0 0 0 0 1022.3 - 0.0
22/04:30pm 18.8 - 19.9 - - SSW 6 7 3 4 1022.1 - 0.0
22/04:00pm 19.6 - 20.7 - - W 7 9 4 5 1021.9 - 0.0
22/03:30pm 19.3 - - - - WNW 11 13 6 7 1021.7 - 0.0
22/03:00pm 18.5 - - - - NW 13 15 7 8 1021.7 1021.6 0.0
22/02:30pm 18.0 - - - - NNW 15 20 8 11 1021.6 - 0.0
22/02:00pm 17.4 - - - - NW 20 24 11 13 1021.6 - 0.0
22/01:30pm 16.8 - - - - NNW 19 22 10 12 1021.8 - 0.0
22/01:00pm 17.0 - - - - NW 24 32 13 17 1022.0 - 0.0
22/12:30pm 17.3 - - - - NW 28 35 15 19 1022.2 - 0.0
22/12:00pm 17.6 - - - - NNW 22 28 12 15 1022.5 1022.4 0.0
22/11:30am 16.9 - - - - NNW 19 24 10 13 1022.9 - 0.0
22/11:00am 17.0 - - - - N 17 20 9 11 1023.0 - 0.0
22/10:30am 16.7 - - - - NNW 19 22 10 12 1023.0 - 0.0
22/10:00am 17.0 - - - - N 19 26 10 14 1023.2 - 0.0
22/09:30am 16.7 - - - - N 17 22 9 12 1023.3 - 0.0
22/09:00am 16.3 - - - - N 15 19 8 10 1023.2 1023.1 0.6
22/08:30am 16.1 - - - - N 15 19 8 10 1023.1 - 0.6
22/08:00am 16.0 - - - - N 19 20 10 11 1022.9 - 0.6
22/07:30am 15.4 - - - - N 20 26 11 14 1022.7 - 0.6
22/07:00am 15.5 - - - - N 20 24 11 13 1022.4 - 0.6
22/06:30am 15.3 - - - - N 19 20 10 11 1022.2 - 0.6
22/06:00am 15.3 - - - - N 17 20 9 11 1022.1 1022.0 0.4
22/05:30am 15.2 - - - - N 17 20 9 11 1022.0 - 0.4
22/05:00am 15.7 - - - - NNW 13 19 7 10 1022.2 - 0.0
22/04:30am 15.8 - - - - N 15 19 8 10 1021.9 - 0.0
22/04:00am 15.9 - - - - NNW 15 19 8 10 1021.7 - 0.0
22/03:30am 15.9 - - - - NNW 15 19 8 10 1021.6 - 0.0
22/03:00am 15.9 - - - - NW 19 20 10 11 1021.7 1021.6 0.0
22/02:30am 15.9 - - - - NNW 17 20 9 11 1022.0 - 0.0
22/02:00am 16.0 - - - - NNW 17 22 9 12 1022.3 - 0.0
22/01:30am 16.1 - - - - N 17 24 9 13 1022.4 - 0.0
22/01:00am 16.4 - - - - NNW 20 35 11 19 1022.3 - 0.0
22/12:30am 16.6 - - - - N 26 33 14 18 1022.2 - 0.0
22/12:00am 17.3 - 18.4 - - N 28 37 15 20 1022.2 1022.1 0.0
 
Date/Time
EST
Temp
°C
App
Temp
°C
Dew
Point
°C
Rel
Hum
%
Delta-T
°C
Wind Press
QNH
hPa
Press
MSL
hPa
Rain since
9am
mm
Dir  Spd
km/h
Gust
km/h
Spd
kts
Gust
kts
21/11:30pm 18.1 - 19.2 - - N 28 35 15 19 1022.1 - 0.0

Other Formats:

Comma delimited format used in spreadsheet applications
http://www.bom.gov.au/fwo/IDV60801/IDV60801.94949.axf

JavaScript Object Notation format (JSON) in row-major order
http://www.bom.gov.au/fwo/IDV60801/IDV60801.94949.json